Time;durP1;ratioP1;P1;durP2;ratioP2;P2;SDS_P1;SDS_P2;PMS_P1;PMS_P2;Temp;Humidity;BMP_temperature;BMP_pressure;BME280_temperature;BME280_humidity;BME280_pressure;Samples;Min_cycle;Max_cycle;Signal;HPM_P1;HPM_P2
2024/01/20 00:01:13;;;;;;;1.10;1.00;;;;;;;5.63;100.00;98624.53;4927508;29;20040;-93
2024/01/20 00:03:38;;;;;;;0.93;0.77;;;;;;;6.05;100.00;98699.78;4926561;29;20043;-94
2024/01/20 00:06:04;;;;;;;1.83;1.15;;;;;;;5.79;100.00;98700.00;4929726;29;20048;-90
2024/01/20 00:08:30;;;;;;;5.07;0.73;;;;;;;5.75;100.00;98704.44;4926750;29;20027;-94
2024/01/20 00:10:56;;;;;;;2.30;1.00;;;;;;;5.96;100.00;98755.28;4926329;29;20111;-93
2024/01/20 00:13:23;;;;;;;0.52;0.35;;;;;;;5.35;100.00;98633.53;4926184;29;20442;-94
2024/01/20 00:15:49;;;;;;;3.75;0.93;;;;;;;5.52;100.00;98657.13;4924029;29;20048;-95
2024/01/20 00:18:15;;;;;;;1.70;1.10;;;;;;;5.63;100.00;98642.97;4939218;29;20058;-94
2024/01/20 00:20:42;;;;;;;5.88;0.93;;;;;;;5.56;100.00;98665.91;4930339;29;20092;-92
2024/01/20 00:23:08;;;;;;;2.25;1.00;;;;;;;6.00;100.00;98754.38;4927659;29;20051;-92
2024/01/20 00:25:34;;;;;;;3.53;1.55;;;;;;;5.54;100.00;98659.78;4936204;29;20135;-95
2024/01/20 00:28:00;;;;;;;2.08;1.02;;;;;;;6.03;100.00;98725.34;4922476;29;20414;-93
2024/01/20 00:30:27;;;;;;;2.53;1.45;;;;;;;5.66;100.00;98645.56;4924062;29;20107;-95
2024/01/20 00:32:53;;;;;;;1.02;0.82;;;;;;;5.91;100.00;98693.72;4927136;29;20071;-95
2024/01/20 00:35:19;;;;;;;3.63;1.50;;;;;;;5.81;100.00;98674.47;4924152;29;20502;-95
2024/01/20 00:37:45;;;;;;;5.32;1.02;;;;;;;5.59;100.00;98659.72;4927885;29;20078;-95
2024/01/20 00:40:12;;;;;;;2.15;0.65;;;;;;;5.85;100.00;98718.41;4925039;29;20421;-93
2024/01/20 00:42:38;;;;;;;2.15;0.98;;;;;;;5.54;100.00;98667.69;4932773;29;20054;-93
2024/01/20 00:45:05;;;;;;;2.35;1.00;;;;;;;5.37;100.00;98674.84;4924466;29;20044;-94
2024/01/20 00:47:32;;;;;;;3.50;1.20;;;;;;;5.41;100.00;98645.81;4936094;29;20047;-94
2024/01/20 00:49:58;;;;;;;2.35;0.82;;;;;;;5.94;100.00;98720.09;4929049;29;20044;-94
2024/01/20 00:52:24;;;;;;;4.18;1.33;;;;;;;6.00;100.00;98714.78;4930485;29;20047;-94
2024/01/20 00:54:51;;;;;;;4.07;1.38;;;;;;;6.03;100.00;98764.94;4931525;29;20048;-93
2024/01/20 00:57:17;;;;;;;1.52;0.50;;;;;;;5.83;100.00;98709.63;4923650;29;20469;-95
2024/01/20 00:59:45;;;;;;;2.10;1.27;;;;;;;5.48;100.00;98684.41;4924425;29;20044;-95
2024/01/20 01:02:11;;;;;;;2.42;1.60;;;;;;;5.33;100.00;98693.34;4925113;29;20093;-94
2024/01/20 01:04:38;;;;;;;4.68;0.88;;;;;;;5.56;100.00;98705.47;4923718;29;20044;-94
2024/01/20 01:07:04;;;;;;;4.40;1.15;;;;;;;5.55;100.00;98672.06;4930815;29;20486;-95
2024/01/20 01:09:30;;;;;;;1.80;1.15;;;;;;;5.80;100.00;98724.63;4929710;29;20068;-94
2024/01/20 01:11:56;;;;;;;2.88;1.25;;;;;;;5.66;100.00;98715.06;4923790;29;20048;-94
2024/01/20 01:14:22;;;;;;;1.00;0.82;;;;;;;5.51;100.00;98676.50;4931682;29;20040;-96
2024/01/20 01:16:48;;;;;;;4.18;1.45;;;;;;;5.85;100.00;98712.25;4923215;29;20055;-94
2024/01/20 01:19:15;;;;;;;3.25;1.15;;;;;;;5.67;100.00;98715.94;4925144;29;20067;-95
2024/01/20 01:21:42;;;;;;;4.95;1.40;;;;;;;5.65;100.00;98673.72;4926905;29;20075;-94
2024/01/20 01:24:08;;;;;;;9.73;1.05;;;;;;;5.61;100.00;98660.59;4924319;29;20471;-96
2024/01/20 01:26:34;;;;;;;2.05;0.90;;;;;;;5.80;100.00;98682.41;4923740;29;20052;-94
2024/01/20 01:29:00;;;;;;;2.47;0.88;;;;;;;6.30;100.00;98758.50;4921857;29;20050;-93
2024/01/20 01:31:26;;;;;;;3.33;1.17;;;;;;;5.70;100.00;98679.88;4924969;29;20055;-93
2024/01/20 01:33:52;;;;;;;5.15;0.68;;;;;;;5.66;100.00;98686.06;4937058;28;20032;-93
2024/01/20 01:36:18;;;;;;;3.33;0.70;;;;;;;6.07;100.00;98771.03;4920582;29;20075;-95
2024/01/20 01:38:45;;;;;;;3.55;0.90;;;;;;;5.73;100.00;98715.91;4924605;29;20047;-94
2024/01/20 01:41:11;;;;;;;2.20;0.82;;;;;;;5.72;100.00;98706.22;4924658;29;20048;-92
2024/01/20 01:43:37;;;;;;;3.97;0.90;;;;;;;5.34;100.00;98716.19;4928172;29;20069;-92
2024/01/20 01:46:03;;;;;;;4.85;1.38;;;;;;;5.36;100.00;98705.63;4924488;29;20044;-93
2024/01/20 01:48:30;;;;;;;1.70;0.90;;;;;;;5.34;100.00;98688.94;4923433;29;20104;-96
2024/01/20 01:50:57;;;;;;;4.78;1.70;;;;;;;5.77;100.00;98759.84;4924348;29;20064;-94
2024/01/20 01:53:23;;;;;;;1.35;1.00;;;;;;;5.33;100.00;98682.81;4926991;29;20099;-93
2024/01/20 01:55:52;;;;;;;1.80;0.40;;;;;;;5.58;100.00;98718.66;4924204;29;20474;-95
2024/01/20 01:58:18;;;;;;;1.13;0.73;;;;;;;5.59;100.00;98709.84;4919540;29;20648;-94
2024/01/20 02:00:44;;;;;;;2.45;1.15;;;;;;;5.81;100.00;98735.16;4919477;29;20139;-94
2024/01/20 02:03:10;;;;;;;0.95;0.50;;;;;;;5.57;100.00;98741.50;4925134;29;20462;-94
2024/01/20 02:05:36;;;;;;;3.50;0.60;;;;;;;5.47;100.00;98739.84;4921873;29;20528;-92
2024/01/20 02:08:03;;;;;;;2.85;0.75;;;;;;;5.44;100.00;98734.56;4925314;29;20063;-92
2024/01/20 02:10:30;;;;;;;1.08;0.88;;;;;;;5.27;100.00;98692.50;4922894;29;20074;-94
2024/01/20 02:12:58;;;;;;;2.55;0.90;;;;;;;5.76;100.00;98776.53;4923285;29;20493;-92
2024/01/20 02:15:25;;;;;;;2.25;1.13;;;;;;;5.29;100.00;98765.44;4924517;29;20048;-91
2024/01/20 02:17:52;;;;;;;1.25;0.70;;;;;;;4.98;100.00;98698.81;4919728;29;20031;-94
2024/01/20 02:20:18;;;;;;;1.88;0.70;;;;;;;5.66;100.00;98803.88;4920399;29;20135;-94
2024/01/20 02:22:45;;;;;;;4.15;0.50;;;;;;;5.27;100.00;98742.59;4922753;29;20462;-92
2024/01/20 02:25:11;;;;;;;3.42;1.45;;;;;;;5.31;100.00;98779.50;4921713;29;20071;-94
2024/01/20 02:27:37;;;;;;;1.95;0.60;;;;;;;5.51;100.00;98808.38;4921955;29;20454;-94
2024/01/20 02:30:03;;;;;;;1.25;1.00;;;;;;;4.92;100.00;98712.94;4919937;29;20048;-94
2024/01/20 02:32:29;;;;;;;0.93;0.85;;;;;;;5.21;100.00;98756.69;4916659;29;20052;-95
2024/01/20 02:34:55;;;;;;;1.65;1.25;;;;;;;4.88;100.00;98724.38;4915251;29;20047;-94
2024/01/20 02:37:21;;;;;;;4.65;0.80;;;;;;;5.35;100.00;98789.13;4910516;29;20073;-95
2024/01/20 02:39:48;;;;;;;4.93;1.13;;;;;;;4.95;100.00;98741.03;4916486;29;20040;-94
2024/01/20 02:42:14;;;;;;;3.33;1.48;;;;;;;5.11;100.00;98768.16;4917953;29;20040;-93
2024/01/20 02:44:40;;;;;;;2.90;0.90;;;;;;;4.56;100.00;98721.88;4912956;29;20505;-92
2024/01/20 02:47:06;;;;;;;3.83;0.60;;;;;;;5.09;100.00;98805.06;4911781;29;20375;-93
2024/01/20 02:49:32;;;;;;;4.35;1.50;;;;;;;4.80;100.00;98746.38;4914291;29;20074;-96
2024/01/20 02:51:58;;;;;;;10.40;1.38;;;;;;;4.90;100.00;98806.03;4921341;29;20052;-94
2024/01/20 02:54:24;;;;;;;5.50;0.80;;;;;;;4.53;100.00;98740.28;4914576;29;20139;-94
2024/01/20 02:56:51;;;;;;;5.35;0.93;;;;;;;4.73;100.00;98785.91;4921446;29;20071;-93
2024/01/20 02:59:17;;;;;;;2.03;1.58;;;;;;;4.90;100.00;98838.53;4920958;29;20064;-92
2024/01/20 03:01:43;;;;;;;3.60;1.42;;;;;;;4.88;100.00;98835.03;4920008;29;20041;-94
2024/01/20 03:04:09;;;;;;;1.73;0.65;;;;;;;4.70;100.00;98780.63;4920000;29;20051;-93
2024/01/20 03:06:35;;;;;;;1.80;0.88;;;;;;;4.57;100.00;98741.19;4911306;29;20052;-93
2024/01/20 03:09:00;;;;;;;4.10;0.73;;;;;;;4.64;100.00;98756.97;4920428;29;20096;-94
2024/01/20 03:11:26;;;;;;;4.82;0.82;;;;;;;4.80;100.00;98770.94;4914265;29;20052;-94
2024/01/20 03:13:53;;;;;;;3.70;2.08;;;;;;;4.96;100.00;98845.53;4906834;29;20049;-93
2024/01/20 03:16:19;;;;;;;3.90;1.20;;;;;;;4.83;100.00;98825.38;4918048;29;20048;-94
2024/01/20 03:18:45;;;;;;;1.77;0.90;;;;;;;4.69;100.00;98799.97;4922551;29;20054;-93
2024/01/20 03:21:11;;;;;;;4.90;1.13;;;;;;;4.65;100.00;98787.69;4920160;29;20552;-94
2024/01/20 03:23:37;;;;;;;2.05;0.98;;;;;;;4.36;100.00;98758.81;4921781;29;20044;-93
2024/01/20 03:26:07;;;;;;;1.23;0.90;;;;;;;4.40;100.00;98751.75;4920456;29;20092;-93
2024/01/20 03:28:33;;;;;;;1.48;1.27;;;;;;;4.51;100.00;98786.81;4921664;29;20055;-94
2024/01/20 03:31:01;;;;;;;2.28;1.10;;;;;;;4.76;100.00;98828.94;4922190;29;20115;-94
2024/01/20 03:33:26;;;;;;;1.67;0.77;;;;;;;4.55;100.00;98807.00;4924018;29;20056;-93
2024/01/20 03:35:52;;;;;;;1.02;0.80;;;;;;;4.51;100.00;98776.28;4917523;29;20051;-94
2024/01/20 03:38:19;;;;;;;1.30;0.88;;;;;;;4.80;100.00;98839.44;4917560;29;20072;-93
2024/01/20 03:40:45;;;;;;;2.97;0.60;;;;;;;5.12;100.00;98889.41;4922861;29;20048;-93
2024/01/20 03:43:11;;;;;;;3.88;1.63;;;;;;;4.61;100.00;98858.81;4913968;29;20092;-92
2024/01/20 03:45:39;;;;;;;1.42;0.70;;;;;;;4.46;100.00;98799.13;4924767;29;20041;-93
2024/01/20 03:48:06;;;;;;;2.10;1.10;;;;;;;4.65;100.00;98823.69;4925414;29;20036;-93
2024/01/20 03:50:32;;;;;;;2.70;1.08;;;;;;;4.86;99.82;98857.88;4919804;29;20040;-94
2024/01/20 03:52:58;;;;;;;4.40;1.45;;;;;;;4.81;100.00;98871.94;4917823;29;20561;-95
2024/01/20 03:55:24;;;;;;;4.32;1.17;;;;;;;4.82;98.65;98881.59;4916472;29;20040;-94
2024/01/20 03:57:50;;;;;;;1.35;0.57;;;;;;;4.41;97.46;98816.72;4909586;29;20083;-93
2024/01/20 04:00:16;;;;;;;3.80;0.93;;;;;;;4.29;100.00;98786.00;4909086;29;20116;-94
2024/01/20 04:02:42;;;;;;;11.30;1.27;;;;;;;4.67;98.49;98850.91;4905787;29;20135;-94
2024/01/20 04:05:10;;;;;;;2.95;1.27;;;;;;;4.77;82.46;98872.81;4913705;29;20068;-94
2024/01/20 04:07:37;;;;;;;3.88;1.17;;;;;;;4.56;79.10;98835.13;4917727;29;20066;-94
2024/01/20 04:10:03;;;;;;;1.75;1.27;;;;;;;4.23;74.82;98794.81;4916762;29;20055;-95
2024/01/20 04:12:29;;;;;;;4.10;1.63;;;;;;;4.51;73.09;98836.84;4922762;29;20071;-96
2024/01/20 04:14:56;;;;;;;3.53;1.50;;;;;;;4.35;73.77;98793.03;4926113;29;20048;-94
2024/01/20 04:17:22;;;;;;;4.18;0.90;;;;;;;4.19;74.43;98808.84;4920159;29;20406;-94
2024/01/20 04:19:48;;;;;;;2.97;1.15;;;;;;;4.37;74.60;98860.59;4924715;29;20032;-95
2024/01/20 04:22:15;;;;;;;2.42;1.13;;;;;;;4.33;75.00;98827.25;4918546;29;20068;-93
2024/01/20 04:24:41;;;;;;;1.00;0.90;;;;;;;4.67;75.44;98893.03;4902280;29;20029;-92
2024/01/20 04:27:07;;;;;;;1.30;0.80;;;;;;;4.50;76.72;98890.41;4919359;29;20040;-93
2024/01/20 04:29:33;;;;;;;1.02;0.93;;;;;;;3.79;75.30;98808.81;4918467;29;20044;-92
2024/01/20 04:31:58;;;;;;;2.35;0.90;;;;;;;4.17;76.48;98847.44;4916124;29;20060;-94
2024/01/20 04:34:26;;;;;;;1.67;0.95;;;;;;;4.03;74.75;98841.28;4921050;29;20478;-92
2024/01/20 04:36:52;;;;;;;2.83;1.10;;;;;;;3.96;74.35;98840.41;4914777;29;20053;-94
2024/01/20 04:39:19;;;;;;;7.28;1.25;;;;;;;4.09;75.72;98839.53;4919764;29;20139;-91
2024/01/20 04:41:45;;;;;;;4.05;1.13;;;;;;;4.11;76.06;98856.19;4914246;29;20047;-93
2024/01/20 04:44:11;;;;;;;3.95;1.27;;;;;;;4.14;76.76;98865.84;4911246;29;20136;-92
2024/01/20 04:46:37;;;;;;;1.45;1.08;;;;;;;4.19;76.68;98877.28;4923962;29;20131;-93
2024/01/20 04:49:03;;;;;;;8.68;0.95;;;;;;;3.96;76.39;98857.97;4910687;29;20060;-95
2024/01/20 04:51:29;;;;;;;1.40;0.98;;;;;;;3.78;76.51;98833.38;4924644;29;20138;-91
2024/01/20 04:53:55;;;;;;;7.22;1.08;;;;;;;3.83;76.11;98851.81;4923830;29;20079;-94
2024/01/20 04:56:22;;;;;;;3.00;1.67;;;;;;;4.26;76.15;98922.91;4924613;29;20131;-94
2024/01/20 04:58:48;;;;;;;0.60;0.60;;;;;;;4.03;76.51;98883.38;4924100;29;20131;-93
2024/01/20 05:01:14;;;;;;;3.97;0.88;;;;;;;3.82;77.27;98860.59;4920491;29;20063;-94
2024/01/20 05:03:40;;;;;;;1.33;0.65;;;;;;;3.80;76.87;98860.56;4922084;29;20059;-92
2024/01/20 05:06:06;;;;;;;9.27;1.85;;;;;;;3.98;75.65;98925.47;4920629;29;20068;-93
2024/01/20 05:08:32;;;;;;;1.83;1.20;;;;;;;3.44;76.58;98838.56;4915345;29;20909;-94
2024/01/20 05:10:58;;;;;;;3.72;1.55;;;;;;;3.33;76.71;98829.78;4919322;29;20080;-93
2024/01/20 05:13:25;;;;;;;2.08;1.15;;;;;;;3.52;77.73;98840.38;4924719;29;20048;-94
2024/01/20 05:15:53;;;;;;;4.90;0.90;;;;;;;3.42;75.46;98850.84;4911559;29;20512;-94
2024/01/20 05:18:19;;;;;;;1.80;1.20;;;;;;;4.16;75.85;98947.44;4922004;29;20051;-93
2024/01/20 05:20:45;;;;;;;2.22;1.40;;;;;;;3.73;76.15;98884.22;4925100;29;20044;-95
2024/01/20 05:23:12;;;;;;;1.63;1.15;;;;;;;3.52;76.49;98861.41;4924305;29;20048;-94
2024/01/20 05:25:38;;;;;;;0.98;0.88;;;;;;;3.96;76.37;98939.53;4924064;29;20143;-94
2024/01/20 05:28:04;;;;;;;1.88;0.85;;;;;;;3.70;77.95;98932.44;4924740;29;20052;-94
2024/01/20 05:30:32;;;;;;;3.90;1.10;;;;;;;3.66;78.24;98942.06;4920728;29;20066;-96
2024/01/20 05:32:57;;;;;;;1.85;1.23;;;;;;;3.37;79.43;98875.38;4916466;29;20062;-93
2024/01/20 05:35:23;;;;;;;2.55;1.08;;;;;;;3.40;78.58;98875.38;4924586;29;20111;-94
2024/01/20 05:37:49;;;;;;;1.45;1.10;;;;;;;3.63;78.34;98909.63;4928652;29;20055;-95
2024/01/20 05:40:15;;;;;;;3.15;0.93;;;;;;;4.00;80.31;98986.88;4920683;29;20051;-95
2024/01/20 05:42:41;;;;;;;4.00;1.10;;;;;;;3.69;75.57;98933.31;4924295;29;20040;-93
2024/01/20 05:45:09;;;;;;;3.65;1.23;;;;;;;3.23;77.01;98886.72;4917076;29;20059;-94
2024/01/20 05:47:36;;;;;;;0.88;0.88;;;;;;;3.40;77.28;98904.28;4958964;29;20044;-94
2024/01/20 05:50:02;;;;;;;1.67;1.05;;;;;;;3.34;76.20;98920.94;4924326;29;20035;-96
2024/01/20 05:52:28;;;;;;;2.42;1.45;;;;;;;3.27;77.37;98916.50;4925115;29;20060;-94
2024/01/20 05:54:54;;;;;;;2.50;1.00;;;;;;;3.34;76.49;98933.16;4922935;29;20060;-91
2024/01/20 05:57:20;;;;;;;0.70;0.40;;;;;;;3.31;77.51;98941.91;4923957;29;20419;-96
2024/01/20 05:59:46;;;;;;;3.10;0.90;;;;;;;3.32;77.87;98943.69;4924643;29;20072;-95
2024/01/20 06:02:12;;;;;;;8.10;1.23;;;;;;;3.25;76.63;98923.47;4918914;29;20405;-96
2024/01/20 06:04:39;;;;;;;1.55;0.40;;;;;;;3.38;78.13;98934.94;4924119;29;20417;-95
2024/01/20 06:07:05;;;;;;;1.25;0.90;;;;;;;3.51;78.58;98965.66;4917725;29;20054;-94
2024/01/20 06:09:31;;;;;;;2.70;0.77;;;;;;;3.44;78.44;98977.91;4924270;29;20139;-94
2024/01/20 06:11:57;;;;;;;3.75;0.80;;;;;;;3.17;80.61;98944.50;4917279;29;20100;-95
2024/01/20 06:14:23;;;;;;;2.15;0.90;;;;;;;3.18;78.41;98940.09;4921168;29;20079;-94
2024/01/20 06:16:49;;;;;;;1.10;0.80;;;;;;;3.26;79.35;98954.16;4924461;29;20056;-95
2024/01/20 06:19:15;;;;;;;1.85;1.10;;;;;;;3.62;78.90;99028.81;4918254;29;20120;-93
2024/01/20 06:21:42;;;;;;;1.38;1.10;;;;;;;3.28;83.26;98970.81;4924869;29;20048;-94
2024/01/20 06:24:08;;;;;;;2.63;1.65;;;;;;;3.08;80.29;98960.22;4927942;29;20066;-94
2024/01/20 06:26:34;;;;;;;4.82;1.70;;;;;;;3.62;82.37;99044.59;4934361;29;20135;-94
2024/01/20 06:29:00;;;;;;;2.95;1.20;;;;;;;3.67;80.13;99045.53;4915218;29;20047;-93
2024/01/20 06:31:27;;;;;;;1.77;1.00;;;;;;;3.26;77.93;98975.19;4928901;29;20048;-95
2024/01/20 06:33:53;;;;;;;1.98;0.88;;;;;;;3.47;79.98;99061.16;4923271;29;20044;-92
2024/01/20 06:36:21;;;;;;;1.48;1.38;;;;;;;2.88;79.74;98962.69;4920005;29;20912;-94
2024/01/20 06:38:48;;;;;;;4.72;0.90;;;;;;;2.88;81.58;99013.50;4920204;29;20380;-90
2024/01/20 06:41:14;;;;;;;2.40;1.60;;;;;;;3.06;81.58;99035.50;4917749;29;20095;-94
2024/01/20 06:43:40;;;;;;;3.65;1.55;;;;;;;3.04;82.08;99055.63;4922185;29;20048;-92
2024/01/20 06:46:07;;;;;;;4.32;1.27;;;;;;;2.66;81.41;98985.28;4916053;29;20115;-95
2024/01/20 06:48:33;;;;;;;2.65;0.80;;;;;;;3.17;79.94;99057.47;4923865;29;20051;-94
2024/01/20 06:51:00;;;;;;;7.13;1.40;;;;;;;2.79;80.55;98996.78;4918736;29;20047;-95
2024/01/20 06:53:26;;;;;;;5.88;1.42;;;;;;;2.83;81.83;99015.19;4923329;29;20514;-92
2024/01/20 06:55:53;;;;;;;3.60;1.67;;;;;;;2.80;82.49;99025.69;4921184;29;20044;-91
2024/01/20 06:58:19;;;;;;;6.63;1.55;;;;;;;3.17;82.77;99089.03;4925016;29;20048;-92
2024/01/20 07:00:45;;;;;;;6.30;1.83;;;;;;;2.91;82.74;99027.50;4923696;29;20073;-94
2024/01/20 07:03:11;;;;;;;2.58;1.38;;;;;;;2.69;81.71;98990.59;4916873;29;20040;-93
2024/01/20 07:05:37;;;;;;;2.65;0.88;;;;;;;3.21;82.41;99087.28;4923895;29;20044;-93
2024/01/20 07:08:04;;;;;;;2.92;1.70;;;;;;;3.00;82.16;99052.09;4914991;29;20476;-94
2024/01/20 07:10:30;;;;;;;4.28;1.55;;;;;;;3.18;81.37;99080.25;4925749;29;20044;-92
2024/01/20 07:12:57;;;;;;;3.70;1.20;;;;;;;3.21;81.91;99088.19;4914102;29;20455;-94
2024/01/20 07:15:23;;;;;;;2.33;1.25;;;;;;;2.81;82.18;99014.28;4931465;29;20047;-93
2024/01/20 07:17:49;;;;;;;4.40;1.48;;;;;;;2.73;82.43;99026.47;4926357;29;20052;-93
2024/01/20 07:20:15;;;;;;;6.97;2.17;;;;;;;3.01;81.71;99045.09;4919738;29;20044;-93
2024/01/20 07:22:41;;;;;;;1.95;1.38;;;;;;;3.19;81.36;99068.88;4924965;29;20055;-94
2024/01/20 07:25:08;;;;;;;3.55;1.60;;;;;;;2.95;81.45;99027.56;4918768;29;20140;-94
2024/01/20 07:27:34;;;;;;;1.73;1.08;;;;;;;3.16;82.08;99081.97;4921143;29;20056;-92
2024/01/20 07:30:03;;;;;;;7.45;1.70;;;;;;;2.91;83.17;99017.88;4923562;29;20083;-93
2024/01/20 07:32:29;;;;;;;2.92;1.13;;;;;;;3.07;81.02;99032.00;4917066;29;20060;-94
2024/01/20 07:34:55;;;;;;;3.63;1.48;;;;;;;3.68;81.53;99121.78;4927660;29;20068;-93
2024/01/20 07:37:21;;;;;;;2.55;1.15;;;;;;;3.81;78.90;99124.50;4926659;29;20048;-94
2024/01/20 07:39:47;;;;;;;3.58;1.33;;;;;;;3.40;79.72;99057.63;4926097;29;20051;-94
2024/01/20 07:42:13;;;;;;;3.72;0.82;;;;;;;3.73;79.65;99100.78;4924706;29;20465;-93
2024/01/20 07:44:38;;;;;;;1.88;1.35;;;;;;;3.87;78.36;99101.72;4923738;29;20075;-94
2024/01/20 07:47:06;;;;;;;2.95;1.50;;;;;;;3.77;77.98;99135.88;4919036;29;20048;-93
2024/01/20 07:49:32;;;;;;;3.78;1.02;;;;;;;3.72;77.86;99088.50;4915521;29;20045;-92
2024/01/20 07:51:58;;;;;;;2.55;1.05;;;;;;;3.99;76.76;99128.97;4923787;29;20102;-94
2024/01/20 07:54:24;;;;;;;4.15;1.45;;;;;;;4.25;77.55;99155.41;4914020;29;20418;-93
2024/01/20 07:56:49;;;;;;;2.20;1.63;;;;;;;3.60;75.79;99043.72;4917537;29;20055;-95
2024/01/20 07:59:16;;;;;;;9.57;1.88;;;;;;;3.63;78.68;99091.06;4919332;29;20036;-92
2024/01/20 08:01:42;;;;;;;2.78;1.02;;;;;;;3.82;74.90;99056.13;4923725;29;20103;-93
2024/01/20 08:04:09;;;;;;;2.30;1.30;;;;;;;4.02;75.03;99066.72;4930645;29;20052;-94
2024/01/20 08:06:36;;;;;;;3.90;1.20;;;;;;;4.37;76.14;99123.00;4916332;29;20057;-92
2024/01/20 08:09:10;;;;;;;4.63;1.45;;;;;;;4.26;74.41;99065.91;4915564;29;20048;-94
2024/01/20 08:11:36;;;;;;;3.83;1.33;;;;;;;4.04;73.40;99045.69;4911428;29;20044;-93
2024/01/20 08:14:01;;;;;;;4.15;1.77;;;;;;;4.13;72.79;99108.88;4918411;29;20050;-93
2024/01/20 08:16:28;;;;;;;4.50;1.25;;;;;;;4.13;71.76;99055.34;4925623;29;20040;-94
2024/01/20 08:18:56;;;;;;;2.60;1.40;;;;;;;4.74;71.69;99109.03;4927964;29;20052;-94
2024/01/20 08:21:24;;;;;;;1.35;1.10;;;;;;;5.00;70.05;99158.28;4929453;29;20040;-95
2024/01/20 08:23:53;;;;;;;1.75;1.10;;;;;;;4.44;65.51;99072.09;4922374;29;20047;-92
2024/01/20 08:26:19;;;;;;;5.50;1.20;;;;;;;4.63;67.06;99097.59;4916319;29;20080;-95
2024/01/20 08:28:45;;;;;;;3.75;1.00;;;;;;;4.78;65.46;99112.56;4925771;29;20486;-93
2024/01/20 08:31:11;;;;;;;7.57;1.52;;;;;;;4.37;64.82;99084.38;4914984;29;20060;-94
2024/01/20 08:33:37;;;;;;;3.78;1.45;;;;;;;4.93;62.94;99149.47;4923853;29;20052;-94
2024/01/20 08:36:03;;;;;;;3.95;1.00;;;;;;;4.97;65.75;99108.22;4913589;29;20063;-94
2024/01/20 08:38:30;;;;;;;2.55;1.30;;;;;;;4.82;63.65;99081.84;4911677;29;20099;-93
2024/01/20 08:40:56;;;;;;;4.70;1.50;;;;;;;5.40;63.04;99178.50;4915965;29;20498;-93
2024/01/20 08:43:22;;;;;;;1.40;1.00;;;;;;;5.00;62.23;99099.41;4920214;29;20048;-93
2024/01/20 08:45:48;;;;;;;3.58;1.52;;;;;;;5.00;60.50;99133.69;4920935;29;20044;-92
2024/01/20 08:48:14;;;;;;;7.85;2.35;;;;;;;5.00;61.06;99120.50;4919585;29;20043;-91
2024/01/20 08:50:40;;;;;;;7.38;2.03;;;;;;;5.46;60.91;99175.88;4921944;29;20055;-92
2024/01/20 08:53:06;;;;;;;1.35;1.20;;;;;;;5.23;60.90;99147.75;4916591;29;20052;-94
2024/01/20 08:55:34;;;;;;;3.70;1.73;;;;;;;5.29;61.69;99189.97;4922451;29;20055;-93
2024/01/20 08:58:01;;;;;;;4.47;1.30;;;;;;;4.89;61.32;99107.31;4916192;29;20048;-96
2024/01/20 09:00:28;;;;;;;8.52;2.08;;;;;;;4.98;60.57;99167.06;4907966;29;20103;-93
2024/01/20 09:02:53;;;;;;;4.70;1.48;;;;;;;4.97;61.35;99211.00;4914548;29;20048;-92
2024/01/20 09:05:19;;;;;;;4.35;1.40;;;;;;;4.59;62.34;99124.81;4908278;29;20044;-93
2024/01/20 09:07:46;;;;;;;3.30;1.30;;;;;;;4.89;60.60;99136.31;4919389;29;20051;-94
2024/01/20 09:10:12;;;;;;;2.63;1.40;;;;;;;4.97;62.64;99160.91;4917933;29;20081;-91
2024/01/20 09:12:39;;;;;;;2.15;1.63;;;;;;;5.23;61.35;99182.03;4919386;29;20107;-92
2024/01/20 09:15:05;;;;;;;3.55;1.30;;;;;;;5.37;62.98;99134.56;4902256;29;20562;-94
2024/01/20 09:17:31;;;;;;;7.05;2.38;;;;;;;5.13;63.55;99149.50;4919715;29;20139;-94
2024/01/20 09:19:57;;;;;;;5.07;1.70;;;;;;;5.23;64.06;99191.72;4907784;29;20067;-92
2024/01/20 09:22:23;;;;;;;2.72;1.05;;;;;;;5.21;64.74;99204.88;4917991;29;20390;-93
2024/01/20 09:24:49;;;;;;;4.45;1.48;;;;;;;5.31;64.36;99188.22;4919417;29;20078;-95
2024/01/20 09:27:16;;;;;;;2.50;1.20;;;;;;;4.93;64.42;99159.16;4911245;29;20088;-92
2024/01/20 09:29:43;;;;;;;3.88;1.08;;;;;;;5.00;68.85;99129.28;4914541;29;20036;-93
2024/01/20 09:32:09;;;;;;;3.30;1.23;;;;;;;5.41;65.06;99204.03;4914044;29;20406;-93
2024/01/20 09:34:35;;;;;;;6.22;1.90;;;;;;;5.65;64.98;99185.56;4918450;29;20058;-93
2024/01/20 09:37:02;;;;;;;3.10;1.10;;;;;;;5.59;65.14;99211.06;4914395;29;20060;-92
2024/01/20 09:39:27;;;;;;;4.75;1.45;;;;;;;5.59;64.71;99211.94;4916070;29;20051;-94
2024/01/20 09:41:54;;;;;;;3.17;1.45;;;;;;;5.43;64.99;99179.41;4919065;29;20044;-94
2024/01/20 09:44:20;;;;;;;4.68;2.05;;;;;;;5.25;65.20;99184.69;4908025;29;20071;-92
2024/01/20 09:46:48;;;;;;;2.65;1.55;;;;;;;5.19;66.32;99184.69;4918828;29;20493;-95
2024/01/20 09:49:14;;;;;;;5.57;1.38;;;;;;;5.30;65.80;99180.28;4906430;29;20077;-94
2024/01/20 09:51:47;;;;;;;4.20;1.42;;;;;;;5.08;66.97;99148.63;4917924;29;20080;-93
2024/01/20 09:54:14;;;;;;;9.00;1.98;;;;;;;5.30;66.47;99130.19;4918213;29;20139;-93
2024/01/20 09:56:41;;;;;;;5.43;1.05;;;;;;;5.54;65.88;99211.06;4911340;29;20143;-93
2024/01/20 09:59:09;;;;;;;3.58;1.85;;;;;;;5.28;68.05;99219.81;4910715;29;20043;-93
2024/01/20 10:01:37;;;;;;;5.43;1.65;;;;;;;5.08;67.71;99182.91;4916669;29;20040;-92
2024/01/20 10:04:05;;;;;;;3.10;1.90;;;;;;;5.43;69.26;99203.16;4912442;29;20157;-93
2024/01/20 10:06:31;;;;;;;8.20;3.40;;;;;;;4.90;67.86;99157.41;4909820;29;20044;-94
2024/01/20 10:08:57;;;;;;;6.22;2.10;;;;;;;5.43;67.05;99200.50;4920276;29;20056;-94
2024/01/20 10:11:23;;;;;;;5.60;2.53;;;;;;;5.08;68.99;99174.13;4906468;29;20049;-93
2024/01/20 10:13:49;;;;;;;9.60;2.90;;;;;;;5.21;67.95;99177.66;4913543;29;20052;-94
2024/01/20 10:16:15;;;;;;;4.65;1.90;;;;;;;5.32;67.62;99166.22;4916590;29;21536;-95
2024/01/20 10:18:41;;;;;;;7.85;2.15;;;;;;;5.46;65.77;99168.84;4921909;29;20048;-94
2024/01/20 10:21:08;;;;;;;8.07;2.28;;;;;;;5.58;66.13;99169.75;4917441;29;20088;-94
2024/01/20 10:23:42;;;;;;;4.10;1.60;;;;;;;6.29;63.79;99242.72;4904362;29;20052;-94
2024/01/20 10:26:09;;;;;;;1.33;1.23;;;;;;;5.79;64.89;99189.94;4915857;29;20079;-95
2024/01/20 10:28:35;;;;;;;9.75;1.73;;;;;;;6.11;66.52;99219.84;4919076;29;20045;-91
2024/01/20 10:31:07;;;;;;;3.60;1.67;;;;;;;5.67;66.43;99183.78;4905631;29;20053;-94
2024/01/20 10:33:36;;;;;;;7.28;1.15;;;;;;;5.84;66.20;99167.94;4905733;29;20044;-95
2024/01/20 10:36:03;;;;;;;4.65;2.22;;;;;;;6.61;65.64;99251.41;4913331;29;20524;-93
2024/01/20 10:38:37;;;;;;;4.65;2.03;;;;;;;5.93;67.45;99167.91;4906057;29;20079;-93
2024/01/20 10:41:07;;;;;;;4.82;1.80;;;;;;;6.60;64.59;99152.78;4921006;29;20040;-94
2024/01/20 10:43:39;;;;;;;5.47;1.73;;;;;;;6.66;64.64;99173.88;4921795;29;20059;-93
2024/01/20 10:46:14;;;;;;;4.03;1.33;;;;;;;7.09;64.71;99255.63;4921404;29;20048;-92
2024/01/20 10:48:47;;;;;;;5.75;1.15;;;;;;;6.44;65.49;99186.31;4921733;29;20040;-95
2024/01/20 10:51:22;;;;;;;2.47;1.80;;;;;;;6.20;66.15;99192.53;4906044;29;20550;-93
2024/01/20 10:53:51;;;;;;;5.97;1.20;;;;;;;5.82;69.16;99211.94;4907663;29;20065;-94
2024/01/20 10:56:20;;;;;;;2.58;1.17;;;;;;;5.96;69.33;99206.66;4909776;29;20566;-95
2024/01/20 10:58:54;;;;;;;6.30;1.58;;;;;;;6.08;69.05;99179.38;4905753;29;20108;-93
2024/01/20 11:01:20;;;;;;;4.65;2.20;;;;;;;5.89;69.52;99196.97;4921887;29;20068;-94
2024/01/20 11:03:46;;;;;;;3.40;1.63;;;;;;;5.87;71.49;99180.25;4922363;29;20052;-96
2024/01/20 11:06:18;;;;;;;2.22;1.30;;;;;;;5.54;72.93;99188.19;4912046;29;20044;-94
2024/01/20 11:08:51;;;;;;;5.35;2.10;;;;;;;5.71;73.53;99169.72;4909620;29;20049;-94
2024/01/20 11:11:19;;;;;;;5.05;1.35;;;;;;;5.90;73.22;99180.28;4925386;29;20048;-95
2024/01/20 11:13:47;;;;;;;7.80;2.67;;;;;;;5.92;74.10;99199.59;4922420;29;20048;-94
2024/01/20 11:16:19;;;;;;;2.55;1.73;;;;;;;5.89;74.03;99200.47;4908589;29;20076;-95
2024/01/20 11:18:45;;;;;;;4.55;1.67;;;;;;;6.30;73.84;99262.94;4918121;29;20048;-94
2024/01/20 11:21:15;;;;;;;2.42;1.60;;;;;;;5.80;74.34;99176.75;4923518;29;20059;-94
2024/01/20 11:23:46;;;;;;;4.40;1.95;;;;;;;6.38;76.35;99226.81;4922184;29;20052;-92
2024/01/20 11:26:13;;;;;;;3.58;1.20;;;;;;;6.32;73.06;99183.69;4922985;29;20048;-94
2024/01/20 11:28:43;;;;;;;5.53;2.10;;;;;;;6.39;70.03;99166.94;4921753;29;20129;-93
2024/01/20 11:31:18;;;;;;;4.28;2.22;;;;;;;6.94;69.54;99253.03;4916192;29;20056;-96
2024/01/20 11:33:43;;;;;;;5.50;1.48;;;;;;;6.75;68.62;99263.69;4920227;29;20052;-88
2024/01/20 11:36:10;;;;;;;9.20;1.52;;;;;;;6.60;65.71;99249.66;4920245;29;20052;-94